Time;durP1;ratioP1;P1;durP2;ratioP2;P2;SDS_P1;SDS_P2;PMS_P1;PMS_P2;Temp;Humidity;BMP_temperature;BMP_pressure;BME280_temperature;BME280_humidity;BME280_pressure;Samples;Min_cycle;Max_cycle;Signal;HPM_P1;HPM_P2
2021/09/21 00:01:27;;;;;;;1999.90;999.90;;;;;;;;;;4990797;28;20238;-64
2021/09/21 00:04:14;;;;;;;1999.90;999.90;;;;;;;;;;4972226;28;20203;-63
2021/09/21 00:06:59;;;;;;;1999.90;999.90;;;;;;;;;;4978911;28;20358;-64
2021/09/21 00:09:46;;;;;;;1999.90;999.90;;;;;;;;;;4992367;28;20274;-64
2021/09/21 00:12:31;;;;;;;1999.90;999.90;;;;;;;;;;4991446;28;20242;-64
2021/09/21 00:15:16;;;;;;;1999.90;999.90;;;;;;;;;;4991200;28;20230;-65
2021/09/21 00:18:02;;;;;;;1999.90;999.90;;;;;;;;;;4987486;28;20341;-64
2021/09/21 00:20:48;;;;;;;1999.90;999.90;;;;;;;;;;4972641;28;20215;-64
2021/09/21 00:23:33;;;;;;;1999.90;999.90;;;;;;;;;;4989772;28;20790;-64
2021/09/21 00:26:18;;;;;;;1999.90;999.90;;;;;;;;;;4990589;28;20207;-64
2021/09/21 00:29:03;;;;;;;1999.90;999.90;;;;;;;;;;4991775;28;20203;-65
2021/09/21 00:31:55;;;;;;;1999.90;999.90;;;;;;;;;;4990255;28;20728;-64
2021/09/21 00:34:43;;;;;;;1999.90;999.90;;;;;;;;;;4990984;28;20215;-61
2021/09/21 00:37:29;;;;;;;1999.90;999.90;;;;;;;;;;4990732;28;20964;-63
2021/09/21 00:40:15;;;;;;;1999.90;999.90;;;;;;;;;;4991613;28;20207;-64
2021/09/21 00:43:01;;;;;;;1999.90;999.90;;;;;;;;;;4990461;28;20285;-64
2021/09/21 00:45:46;;;;;;;1999.90;999.90;;;;;;;;;;4990718;28;20380;-61
2021/09/21 00:48:31;;;;;;;1999.90;999.90;;;;;;;;;;4990161;28;20221;-64
2021/09/21 00:51:16;;;;;;;1999.90;999.90;;;;;;;;;;4991584;28;20242;-63
2021/09/21 00:54:02;;;;;;;1999.90;999.90;;;;;;;;;;4991200;28;20219;-64
2021/09/21 00:56:47;;;;;;;1999.90;999.90;;;;;;;;;;4990441;28;20315;-63
2021/09/21 00:59:32;;;;;;;1999.90;999.90;;;;;;;;;;4991622;28;20214;-64
2021/09/21 01:02:17;;;;;;;1999.90;999.90;;;;;;;;;;4981377;28;20247;-63
2021/09/21 01:05:02;;;;;;;1999.90;999.90;;;;;;;;;;4971391;28;20324;-64
2021/09/21 01:07:47;;;;;;;1999.90;999.90;;;;;;;;;;4985158;28;20291;-64
2021/09/21 01:10:33;;;;;;;1999.90;999.90;;;;;;;;;;4990948;28;20492;-63
2021/09/21 01:13:18;;;;;;;1999.90;999.90;;;;;;;;;;4989989;28;20257;-65
2021/09/21 01:16:05;;;;;;;1999.90;999.90;;;;;;;;;;4989845;28;20199;-64
2021/09/21 01:18:50;;;;;;;1999.90;999.90;;;;;;;;;;4991210;28;20210;-64
2021/09/21 01:21:37;;;;;;;1999.90;999.90;;;;;;;;;;4990008;28;20235;-64
2021/09/21 01:24:21;;;;;;;1999.90;999.90;;;;;;;;;;4990555;28;20210;-64
2021/09/21 01:27:06;;;;;;;1999.90;999.90;;;;;;;;;;4990436;28;20348;-64
2021/09/21 01:29:51;;;;;;;1999.90;999.90;;;;;;;;;;4991430;28;20321;-64
2021/09/21 01:32:36;;;;;;;1999.90;999.90;;;;;;;;;;4989684;28;20905;-63
2021/09/21 01:35:21;;;;;;;1999.90;999.90;;;;;;;;;;4990365;28;20625;-63
2021/09/21 01:38:08;;;;;;;1999.90;999.90;;;;;;;;;;4991288;28;20581;-63
2021/09/21 01:40:52;;;;;;;1999.90;999.90;;;;;;;;;;4991420;28;20274;-63
2021/09/21 01:43:38;;;;;;;1999.90;999.90;;;;;;;;;;4991726;28;20301;-63
2021/09/21 01:46:23;;;;;;;1999.90;999.90;;;;;;;;;;4988263;28;20211;-63
2021/09/21 01:49:09;;;;;;;1999.90;999.90;;;;;;;;;;4991402;28;20203;-63
2021/09/21 01:52:01;;;;;;;1999.90;999.90;;;;;;;;;;4989507;28;20727;-63
2021/09/21 02:00:49;;;;;;;1999.90;999.90;;;;;;;;;;4976051;28;20219;-63
2021/09/21 02:03:34;;;;;;;1999.90;999.90;;;;;;;;;;4991229;28;20850;-63
2021/09/21 02:06:22;;;;;;;1999.90;999.90;;;;;;;;;;4989388;28;20214;-63
2021/09/21 02:09:08;;;;;;;1999.90;999.90;;;;;;;;;;4990930;28;20737;-64
2021/09/21 02:11:54;;;;;;;1999.90;999.90;;;;;;;;;;4989887;28;20246;-64
2021/09/21 02:14:39;;;;;;;1999.90;999.90;;;;;;;;;;4989910;28;20219;-64
2021/09/21 02:17:24;;;;;;;1999.90;999.90;;;;;;;;;;4990851;28;20223;-64
2021/09/21 02:20:10;;;;;;;1999.90;999.90;;;;;;;;;;4989357;28;20584;-64
2021/09/21 02:22:55;;;;;;;1999.90;999.90;;;;;;;;;;4991474;28;20273;-64
2021/09/21 02:25:40;;;;;;;1999.90;999.90;;;;;;;;;;4992530;28;20207;-64
2021/09/21 02:28:27;;;;;;;1999.90;999.90;;;;;;;;;;4994466;28;20229;-63
2021/09/21 02:31:14;;;;;;;1999.90;999.90;;;;;;;;;;4992896;28;20980;-63
2021/09/21 02:33:59;;;;;;;1999.90;999.90;;;;;;;;;;4993812;28;20203;-64
2021/09/21 02:36:43;;;;;;;1999.90;999.90;;;;;;;;;;4990346;28;20204;-64
2021/09/21 02:39:28;;;;;;;1999.90;999.90;;;;;;;;;;4992903;28;20313;-64
2021/09/21 02:42:13;;;;;;;1999.90;999.90;;;;;;;;;;4993247;28;20383;-63
2021/09/21 02:44:59;;;;;;;1999.90;999.90;;;;;;;;;;4992467;28;20222;-64
2021/09/21 02:47:44;;;;;;;1999.90;999.90;;;;;;;;;;4993615;28;20210;-64
2021/09/21 02:50:29;;;;;;;1999.90;999.90;;;;;;;;;;4992425;28;20215;-64
2021/09/21 02:53:17;;;;;;;1999.90;999.90;;;;;;;;;;4993860;28;20206;-64
2021/09/21 02:56:02;;;;;;;1999.90;999.90;;;;;;;;;;4991910;28;20241;-63
2021/09/21 02:58:47;;;;;;;1999.90;999.90;;;;;;;;;;4993703;28;20348;-63
2021/09/21 03:01:33;;;;;;;1999.90;999.90;;;;;;;;;;4993211;28;20362;-64
2021/09/21 03:04:23;;;;;;;1999.90;999.90;;;;;;;;;;4991730;28;20811;-64
2021/09/21 03:07:11;;;;;;;1999.90;999.90;;;;;;;;;;4993605;28;20286;-64
2021/09/21 03:10:09;;;;;;;1999.90;999.90;;;;;;;;;;4992434;28;20694;-64
2021/09/21 03:13:14;;;;;;;1999.90;999.90;;;;;;;;;;4993272;28;20211;-64
2021/09/21 03:19:04;;;;;;;1999.90;999.90;;;;;;;;;;4989977;28;20765;-64
2021/09/21 03:21:49;;;;;;;1999.90;999.90;;;;;;;;;;4975781;28;20242;-64
2021/09/21 03:24:34;;;;;;;1999.90;999.90;;;;;;;;;;4978194;28;20206;-63
2021/09/21 03:27:20;;;;;;;1999.90;999.90;;;;;;;;;;4987713;28;20210;-63
2021/09/21 03:30:05;;;;;;;1999.90;999.90;;;;;;;;;;4991079;28;20417;-64
2021/09/21 03:32:50;;;;;;;1999.90;999.90;;;;;;;;;;4993195;28;20227;-63
2021/09/21 03:35:37;;;;;;;1999.90;999.90;;;;;;;;;;4986812;28;20227;-64
2021/09/21 03:38:21;;;;;;;1999.90;999.90;;;;;;;;;;4992596;28;20802;-64
2021/09/21 03:41:06;;;;;;;1999.90;999.90;;;;;;;;;;4984384;28;20374;-63
2021/09/21 03:43:51;;;;;;;1999.90;999.90;;;;;;;;;;4992689;28;20281;-64
2021/09/21 03:46:36;;;;;;;1999.90;999.90;;;;;;;;;;4985980;28;20207;-63
2021/09/21 03:49:21;;;;;;;1999.90;999.90;;;;;;;;;;4990663;28;20298;-64
2021/09/21 03:52:07;;;;;;;1999.90;999.90;;;;;;;;;;4984611;28;20602;-64
2021/09/21 03:54:53;;;;;;;1999.90;999.90;;;;;;;;;;4987642;28;20248;-64
2021/09/21 03:57:37;;;;;;;1999.90;999.90;;;;;;;;;;4973051;28;20271;-64
2021/09/21 04:00:22;;;;;;;1999.90;999.90;;;;;;;;;;4981807;28;20220;-63
2021/09/21 04:03:08;;;;;;;1999.90;999.90;;;;;;;;;;4987963;28;20372;-63
2021/09/21 04:05:53;;;;;;;1999.90;999.90;;;;;;;;;;4991835;28;20220;-64
2021/09/21 04:08:39;;;;;;;1999.90;999.90;;;;;;;;;;4992358;28;20581;-63
2021/09/21 04:11:25;;;;;;;1999.90;999.90;;;;;;;;;;4992184;28;20614;-64
2021/09/21 04:14:10;;;;;;;1999.90;999.90;;;;;;;;;;4991542;28;20206;-64
2021/09/21 04:16:56;;;;;;;1999.90;999.90;;;;;;;;;;4992286;28;20203;-64
2021/09/21 04:19:41;;;;;;;1999.90;999.90;;;;;;;;;;4992159;28;20779;-64
2021/09/21 04:22:27;;;;;;;1999.90;999.90;;;;;;;;;;4991839;28;20231;-63
2021/09/21 04:25:15;;;;;;;1999.90;999.90;;;;;;;;;;4991615;28;20278;-64
2021/09/21 04:28:00;;;;;;;1999.90;999.90;;;;;;;;;;4992160;28;20199;-64
2021/09/21 04:30:45;;;;;;;1999.90;999.90;;;;;;;;;;4991848;28;20260;-64
2021/09/21 04:33:30;;;;;;;1999.90;999.90;;;;;;;;;;4991711;28;20688;-64
2021/09/21 04:36:15;;;;;;;1999.90;999.90;;;;;;;;;;4991111;28;20362;-64
2021/09/21 04:39:00;;;;;;;1999.90;999.90;;;;;;;;;;4991911;28;20219;-64
2021/09/21 04:41:46;;;;;;;1999.90;999.90;;;;;;;;;;4991739;28;20258;-64
2021/09/21 04:44:31;;;;;;;1999.90;999.90;;;;;;;;;;4991258;28;20207;-64
2021/09/21 04:47:17;;;;;;;1999.90;999.90;;;;;;;;;;4991343;28;20219;-64
2021/09/21 04:50:02;;;;;;;1999.90;999.90;;;;;;;;;;4991726;28;20211;-64
2021/09/21 04:52:47;;;;;;;1999.90;999.90;;;;;;;;;;4991601;28;20235;-64
2021/09/21 04:55:32;;;;;;;1999.90;999.90;;;;;;;;;;4990530;28;20219;-63
2021/09/21 04:58:19;;;;;;;1999.90;999.90;;;;;;;;;;4991230;28;20553;-64
2021/09/21 05:01:03;;;;;;;1999.90;999.90;;;;;;;;;;4991281;28;20460;-64
2021/09/21 05:03:48;;;;;;;1999.90;999.90;;;;;;;;;;4991322;28;20331;-60
2021/09/21 05:06:33;;;;;;;1999.90;999.90;;;;;;;;;;4991156;28;20270;-64
2021/09/21 05:09:18;;;;;;;1999.90;999.90;;;;;;;;;;4991408;28;20568;-64
2021/09/21 05:12:06;;;;;;;1999.90;999.90;;;;;;;;;;4991385;28;20796;-64
2021/09/21 05:14:53;;;;;;;1999.90;999.90;;;;;;;;;;4990588;28;20211;-64
2021/09/21 05:17:38;;;;;;;1999.90;999.90;;;;;;;;;;4991357;28;20207;-63
2021/09/21 05:20:23;;;;;;;1999.90;999.90;;;;;;;;;;4991201;28;20210;-65
2021/09/21 05:23:08;;;;;;;1999.90;999.90;;;;;;;;;;4991104;28;20580;-63
2021/09/21 05:25:53;;;;;;;1999.90;999.90;;;;;;;;;;4990556;28;20290;-63
2021/09/21 05:28:38;;;;;;;1999.90;999.90;;;;;;;;;;4990896;28;20207;-64
2021/09/21 05:31:24;;;;;;;1999.90;999.90;;;;;;;;;;4991217;28;20227;-64
2021/09/21 05:34:09;;;;;;;1999.90;999.90;;;;;;;;;;4990418;28;20227;-64
2021/09/21 05:36:54;;;;;;;1999.90;999.90;;;;;;;;;;4990870;28;20709;-64
2021/09/21 05:39:39;;;;;;;1999.90;999.90;;;;;;;;;;4990846;28;20219;-64
2021/09/21 05:42:24;;;;;;;1999.90;999.90;;;;;;;;;;4991306;28;20230;-64
2021/09/21 05:45:09;;;;;;;1999.90;999.90;;;;;;;;;;4990392;28;20247;-63
2021/09/21 05:47:56;;;;;;;1999.90;999.90;;;;;;;;;;4991335;28;20215;-64
2021/09/21 05:50:41;;;;;;;1999.90;999.90;;;;;;;;;;4990882;28;20198;-64
2021/09/21 05:53:26;;;;;;;1999.90;999.90;;;;;;;;;;4991053;28;20274;-64
2021/09/21 05:56:10;;;;;;;1999.90;999.90;;;;;;;;;;4990076;28;20615;-65
2021/09/21 05:58:56;;;;;;;1999.90;999.90;;;;;;;;;;4993216;28;20227;-64
2021/09/21 06:01:41;;;;;;;1999.90;999.90;;;;;;;;;;4994589;28;20239;-64
2021/09/21 06:04:28;;;;;;;1999.90;999.90;;;;;;;;;;4993941;28;20211;-64
2021/09/21 06:07:12;;;;;;;1999.90;999.90;;;;;;;;;;4994730;28;20328;-65
2021/09/21 06:09:57;;;;;;;1999.90;999.90;;;;;;;;;;4993251;28;20418;-64
2021/09/21 06:12:42;;;;;;;1999.90;999.90;;;;;;;;;;4994442;28;20222;-63
2021/09/21 06:15:28;;;;;;;1999.90;999.90;;;;;;;;;;4993765;28;20781;-64
2021/09/21 06:18:13;;;;;;;1999.90;999.90;;;;;;;;;;4994558;28;20284;-64
2021/09/21 06:20:59;;;;;;;1999.90;999.90;;;;;;;;;;4994781;28;20223;-64
2021/09/21 06:23:44;;;;;;;1999.90;999.90;;;;;;;;;;4994176;28;20207;-65
2021/09/21 06:26:31;;;;;;;1999.90;999.90;;;;;;;;;;4994252;28;20199;-65
2021/09/21 06:29:16;;;;;;;1999.90;999.90;;;;;;;;;;4994291;28;20215;-64
2021/09/21 06:32:01;;;;;;;1999.90;999.90;;;;;;;;;;4994203;28;20227;-63
2021/09/21 06:34:49;;;;;;;1999.90;999.90;;;;;;;;;;4993349;28;20207;-65
2021/09/21 06:37:36;;;;;;;1999.90;999.90;;;;;;;;;;4994047;28;20354;-64
2021/09/21 06:40:21;;;;;;;1999.90;999.90;;;;;;;;;;4994286;28;20666;-64
2021/09/21 06:43:05;;;;;;;1999.90;999.90;;;;;;;;;;4994166;28;20259;-64
2021/09/21 06:45:54;;;;;;;1999.90;999.90;;;;;;;;;;4993050;28;20699;-65
2021/09/21 06:48:40;;;;;;;1999.90;999.90;;;;;;;;;;4987871;28;20210;-64
2021/09/21 06:51:25;;;;;;;1999.90;999.90;;;;;;;;;;4989644;28;20227;-64
2021/09/21 06:54:11;;;;;;;1999.90;999.90;;;;;;;;;;4990720;28;20208;-72
2021/09/21 06:56:57;;;;;;;1999.90;999.90;;;;;;;;;;4987490;28;20532;-64
2021/09/21 06:59:42;;;;;;;1999.90;999.90;;;;;;;;;;4989712;28;20345;-63
2021/09/21 07:02:27;;;;;;;1999.90;999.90;;;;;;;;;;4987210;28;20640;-64
2021/09/21 07:05:12;;;;;;;1999.90;999.90;;;;;;;;;;4991415;28;20674;-65
2021/09/21 07:07:56;;;;;;;1999.90;999.90;;;;;;;;;;4980615;28;20428;-65
2021/09/21 07:10:43;;;;;;;1999.90;999.90;;;;;;;;;;4993484;28;20226;-64
2021/09/21 07:13:27;;;;;;;1999.90;999.90;;;;;;;;;;4990583;28;20220;-64
2021/09/21 07:16:12;;;;;;;1999.90;999.90;;;;;;;;;;4988616;28;20395;-64
2021/09/21 07:18:58;;;;;;;1999.90;999.90;;;;;;;;;;4986735;28;20445;-64
2021/09/21 07:21:47;;;;;;;1999.90;999.90;;;;;;;;;;4989132;28;20257;-64
2021/09/21 07:24:31;;;;;;;1999.90;999.90;;;;;;;;;;4992075;28;20207;-65
2021/09/21 07:27:18;;;;;;;1999.90;999.90;;;;;;;;;;4992036;28;20321;-63
2021/09/21 07:30:04;;;;;;;1999.90;999.90;;;;;;;;;;4982231;28;20298;-64
2021/09/21 07:32:49;;;;;;;1999.90;999.90;;;;;;;;;;4980565;28;20768;-64
2021/09/21 07:35:33;;;;;;;1999.90;999.90;;;;;;;;;;4974436;28;20218;-63
2021/09/21 07:38:19;;;;;;;1999.90;999.90;;;;;;;;;;4973993;28;20221;-63
2021/09/21 07:41:04;;;;;;;1999.90;999.90;;;;;;;;;;4991027;28;20241;-64
2021/09/21 07:43:51;;;;;;;1999.90;999.90;;;;;;;;;;4992341;28;20206;-61
2021/09/21 07:46:38;;;;;;;1999.90;999.90;;;;;;;;;;4973122;28;20207;-64
2021/09/21 07:49:23;;;;;;;1999.90;999.90;;;;;;;;;;4977553;28;20595;-65
2021/09/21 07:52:10;;;;;;;1999.90;999.90;;;;;;;;;;4973747;28;20762;-64
2021/09/21 07:54:54;;;;;;;1999.90;999.90;;;;;;;;;;4982905;28;20234;-65
2021/09/21 07:57:40;;;;;;;1999.90;999.90;;;;;;;;;;4992910;28;20358;-65
2021/09/21 08:00:27;;;;;;;1999.90;999.90;;;;;;;;;;4986869;28;20215;-64
2021/09/21 08:03:12;;;;;;;1999.90;999.90;;;;;;;;;;4975845;28;21135;-65
2021/09/21 08:05:57;;;;;;;1999.90;999.90;;;;;;;;;;4991509;28;20409;-64
2021/09/21 08:08:42;;;;;;;1999.90;999.90;;;;;;;;;;4979894;28;20227;-64
2021/09/21 08:11:27;;;;;;;1999.90;999.90;;;;;;;;;;4991730;28;20234;-65
2021/09/21 08:14:14;;;;;;;1999.90;999.90;;;;;;;;;;4989486;28;20247;-64
2021/09/21 08:17:00;;;;;;;1999.90;999.90;;;;;;;;;;4986908;28;20605;-64
2021/09/21 08:19:45;;;;;;;1999.90;999.90;;;;;;;;;;4991533;28;20218;-65
2021/09/21 08:22:30;;;;;;;1999.90;999.90;;;;;;;;;;4989774;28;20343;-64
2021/09/21 08:25:14;;;;;;;1999.90;999.90;;;;;;;;;;4981824;28;20212;-64
2021/09/21 08:27:59;;;;;;;1999.90;999.90;;;;;;;;;;4979146;28;20437;-64
2021/09/21 08:30:44;;;;;;;1999.90;999.90;;;;;;;;;;4990320;28;20215;-64
2021/09/21 08:33:32;;;;;;;1999.90;999.90;;;;;;;;;;4988815;28;20697;-64
2021/09/21 08:36:17;;;;;;;1999.90;999.90;;;;;;;;;;4985794;28;20216;-64
2021/09/21 08:39:02;;;;;;;1999.90;999.90;;;;;;;;;;4986009;28;20218;-64
2021/09/21 08:41:47;;;;;;;1999.90;999.90;;;;;;;;;;4991719;28;20346;-64
2021/09/21 08:44:32;;;;;;;1999.90;999.90;;;;;;;;;;4982809;28;20207;-63
2021/09/21 08:47:17;;;;;;;1999.90;999.90;;;;;;;;;;4990311;28;20288;-64
2021/09/21 08:50:04;;;;;;;1999.90;999.90;;;;;;;;;;4990212;28;20215;-63
2021/09/21 08:52:49;;;;;;;1999.90;999.90;;;;;;;;;;4992061;28;20227;-64
2021/09/21 08:55:34;;;;;;;1999.90;999.90;;;;;;;;;;4990812;28;20215;-64
2021/09/21 08:58:23;;;;;;;1999.90;999.90;;;;;;;;;;4980887;28;20339;-65
2021/09/21 09:01:12;;;;;;;1999.90;999.90;;;;;;;;;;4972077;28;20340;-64
2021/09/21 09:03:58;;;;;;;1999.90;999.90;;;;;;;;;;4978052;28;20732;-64
2021/09/21 09:06:46;;;;;;;1999.90;999.90;;;;;;;;;;4991470;28;20347;-65
2021/09/21 09:09:32;;;;;;;1999.90;999.90;;;;;;;;;;4990477;28;20215;-65
2021/09/21 09:12:28;;;;;;;1999.90;999.90;;;;;;;;;;4977743;28;20286;-65
2021/09/21 09:15:14;;;;;;;1999.90;999.90;;;;;;;;;;4971264;28;20758;-64
2021/09/21 09:18:00;;;;;;;1999.90;999.90;;;;;;;;;;4978842;28;20464;-64
2021/09/21 09:20:45;;;;;;;1999.90;999.90;;;;;;;;;;4976104;28;20211;-73
2021/09/21 09:23:31;;;;;;;1999.90;999.90;;;;;;;;;;4981632;28;20713;-73
2021/09/21 09:26:20;;;;;;;1999.90;999.90;;;;;;;;;;4981904;28;20203;-72
2021/09/21 09:29:07;;;;;;;1999.90;999.90;;;;;;;;;;4988811;28;20701;-72
2021/09/21 09:32:00;;;;;;;1999.90;999.90;;;;;;;;;;4976956;28;20235;-72
2021/09/21 09:34:45;;;;;;;1999.90;999.90;;;;;;;;;;4981055;28;20282;-74
2021/09/21 09:37:38;;;;;;;1999.90;999.90;;;;;;;;;;4994512;28;20494;-73
2021/09/21 09:40:24;;;;;;;1999.90;999.90;;;;;;;;;;4995116;28;20199;-72
2021/09/21 09:43:09;;;;;;;1999.90;999.90;;;;;;;;;;4995212;28;20210;-74
2021/09/21 09:45:55;;;;;;;1999.90;999.90;;;;;;;;;;4977820;28;20211;-72
2021/09/21 09:48:40;;;;;;;1999.90;999.90;;;;;;;;;;4979713;28;20219;-72
2021/09/21 09:51:25;;;;;;;1999.90;999.90;;;;;;;;;;4975094;28;20589;-73
2021/09/21 09:54:10;;;;;;;1999.90;999.90;;;;;;;;;;4980483;28;20226;-73
2021/09/21 09:56:57;;;;;;;1999.90;999.90;;;;;;;;;;4975313;28;20220;-73
2021/09/21 09:59:43;;;;;;;1999.90;999.90;;;;;;;;;;4975277;28;20205;-74
2021/09/21 10:02:28;;;;;;;1999.90;999.90;;;;;;;;;;4974780;28;20732;-73
2021/09/21 10:05:12;;;;;;;1999.90;999.90;;;;;;;;;;4980586;28;20211;-73
2021/09/21 10:07:58;;;;;;;1999.90;999.90;;;;;;;;;;4980436;28;20578;-73
2021/09/21 10:10:43;;;;;;;1999.90;999.90;;;;;;;;;;4975094;28;20595;-74
2021/09/21 10:13:29;;;;;;;1999.90;999.90;;;;;;;;;;4975012;28;20332;-73
2021/09/21 10:16:15;;;;;;;1999.90;999.90;;;;;;;;;;4976940;28;20582;-74
2021/09/21 10:19:03;;;;;;;1999.90;999.90;;;;;;;;;;4994344;28;20206;-73
2021/09/21 10:21:49;;;;;;;1999.90;999.90;;;;;;;;;;4994320;28;20736;-73
2021/09/21 10:24:36;;;;;;;1999.90;999.90;;;;;;;;;;4993222;28;20418;-73
2021/09/21 10:27:22;;;;;;;1999.90;999.90;;;;;;;;;;4994428;28;20211;-71
2021/09/21 10:30:10;;;;;;;1999.90;999.90;;;;;;;;;;4992844;28;20207;-69
2021/09/21 10:32:56;;;;;;;1999.90;999.90;;;;;;;;;;4986571;28;20627;-70
2021/09/21 10:35:45;;;;;;;1999.90;999.90;;;;;;;;;;4973967;28;20309;-70
2021/09/21 10:38:31;;;;;;;1999.90;999.90;;;;;;;;;;4974579;28;20255;-71
2021/09/21 10:41:15;;;;;;;1999.90;999.90;;;;;;;;;;4974468;28;20722;-70
2021/09/21 10:44:02;;;;;;;1999.90;999.90;;;;;;;;;;4984046;28;20580;-70
2021/09/21 10:46:49;;;;;;;1999.90;999.90;;;;;;;;;;4984381;28;20427;-69
2021/09/21 10:49:36;;;;;;;1999.90;999.90;;;;;;;;;;4974472;28;20277;-70
2021/09/21 10:52:26;;;;;;;1999.90;999.90;;;;;;;;;;4992074;28;20235;-71
2021/09/21 10:55:12;;;;;;;1999.90;999.90;;;;;;;;;;4992388;28;20220;-72
2021/09/21 10:58:00;;;;;;;1999.90;999.90;;;;;;;;;;4988813;28;20352;-71
2021/09/21 11:00:46;;;;;;;1999.90;999.90;;;;;;;;;;4986436;28;20208;-71
2021/09/21 11:03:35;;;;;;;1999.90;999.90;;;;;;;;;;4991227;28;20303;-72
2021/09/21 11:06:21;;;;;;;1999.90;999.90;;;;;;;;;;4981063;28;20628;-71
2021/09/21 11:09:06;;;;;;;1999.90;999.90;;;;;;;;;;4983209;28;20214;-70
2021/09/21 11:11:51;;;;;;;1999.90;999.90;;;;;;;;;;4978318;28;20238;-70
2021/09/21 11:14:37;;;;;;;1999.90;999.90;;;;;;;;;;4984949;28;20212;-70
2021/09/21 11:17:24;;;;;;;1999.90;999.90;;;;;;;;;;4991906;28;20238;-70
2021/09/21 11:20:10;;;;;;;1999.90;999.90;;;;;;;;;;4985348;28;20231;-70
2021/09/21 11:22:59;;;;;;;1999.90;999.90;;;;;;;;;;4982851;28;20789;-70
2021/09/21 11:25:45;;;;;;;1999.90;999.90;;;;;;;;;;4979031;28;20295;-70
2021/09/21 11:28:31;;;;;;;1999.90;999.90;;;;;;;;;;4981433;28;20208;-68
2021/09/21 11:31:18;;;;;;;1999.90;999.90;;;;;;;;;;4978371;28;20814;-70
2021/09/21 11:34:08;;;;;;;1999.90;999.90;;;;;;;;;;4989761;28;20418;-68
2021/09/21 11:36:55;;;;;;;1999.90;999.90;;;;;;;;;;4988823;28;20305;-70
2021/09/21 11:39:40;;;;;;;1999.90;999.90;;;;;;;;;;4992876;28;20332;-70
2021/09/21 11:42:25;;;;;;;1999.90;999.90;;;;;;;;;;4992113;28;20337;-70
2021/09/21 11:45:11;;;;;;;1999.90;999.90;;;;;;;;;;4988117;28;20207;-71
2021/09/21 11:47:56;;;;;;;1999.90;999.90;;;;;;;;;;4992767;28;20207;-70
2021/09/21 11:50:42;;;;;;;1999.90;999.90;;;;;;;;;;4992230;28;20234;-70
2021/09/21 11:53:29;;;;;;;1999.90;999.90;;;;;;;;;;4990777;28;20215;-70
2021/09/21 11:56:19;;;;;;;1999.90;999.90;;;;;;;;;;4990189;28;20453;-70
2021/09/21 11:59:04;;;;;;;1999.90;999.90;;;;;;;;;;4990982;28;20259;-70
2021/09/21 12:01:50;;;;;;;1999.90;999.90;;;;;;;;;;4984551;28;20609;-69
2021/09/21 12:04:35;;;;;;;1999.90;999.90;;;;;;;;;;4984494;28;20944;-69
2021/09/21 12:07:20;;;;;;;1999.90;999.90;;;;;;;;;;4984153;28;20211;-70
2021/09/21 12:10:08;;;;;;;1999.90;999.90;;;;;;;;;;4979291;28;20217;-70
2021/09/21 12:13:04;;;;;;;1999.90;999.90;;;;;;;;;;4980351;28;20642;-69
2021/09/21 12:15:50;;;;;;;1999.90;999.90;;;;;;;;;;4990160;28;20302;-69
2021/09/21 12:18:37;;;;;;;1999.90;999.90;;;;;;;;;;4972544;28;20228;-69
2021/09/21 12:21:23;;;;;;;1999.90;999.90;;;;;;;;;;4972708;28;20248;-70
2021/09/21 12:24:08;;;;;;;1999.90;999.90;;;;;;;;;;4974294;28;20243;-69
2021/09/21 12:27:02;;;;;;;1999.90;999.90;;;;;;;;;;4972726;28;20572;-70
2021/09/21 12:29:47;;;;;;;1999.90;999.90;;;;;;;;;;4972492;28;20325;-70
2021/09/21 12:32:32;;;;;;;1999.90;999.90;;;;;;;;;;4972249;28;20310;-70
2021/09/21 12:35:17;;;;;;;1999.90;999.90;;;;;;;;;;4971484;28;20709;-71
2021/09/21 12:38:03;;;;;;;1999.90;999.90;;;;;;;;;;4989818;28;20307;-70
2021/09/21 12:40:49;;;;;;;1999.90;999.90;;;;;;;;;;4989970;28;20703;-70
2021/09/21 12:43:41;;;;;;;1999.90;999.90;;;;;;;;;;4982018;28;20413;-70
2021/09/21 12:46:29;;;;;;;1999.90;999.90;;;;;;;;;;4991136;28;20289;-70
2021/09/21 12:49:15;;;;;;;1999.90;999.90;;;;;;;;;;4991721;28;20342;-71
2021/09/21 12:52:00;;;;;;;1999.90;999.90;;;;;;;;;;4990551;28;20814;-70
2021/09/21 12:54:48;;;;;;;1999.90;999.90;;;;;;;;;;4971172;28;20215;-71
2021/09/21 12:57:33;;;;;;;1999.90;999.90;;;;;;;;;;4977548;28;20246;-70
2021/09/21 13:00:19;;;;;;;1999.90;999.90;;;;;;;;;;4979028;28;20217;-70
2021/09/21 13:03:05;;;;;;;1999.90;999.90;;;;;;;;;;4985654;28;20271;-70
2021/09/21 13:05:52;;;;;;;1999.90;999.90;;;;;;;;;;4978304;28;20462;-70
2021/09/21 13:08:38;;;;;;;1999.90;999.90;;;;;;;;;;4983274;28;20201;-69
2021/09/21 13:11:23;;;;;;;1999.90;999.90;;;;;;;;;;4974296;28;20288;-70
2021/09/21 13:14:08;;;;;;;1999.90;999.90;;;;;;;;;;4987342;28;20221;-71
2021/09/21 13:16:55;;;;;;;1999.90;999.90;;;;;;;;;;4986214;28;20907;-70
2021/09/21 13:19:40;;;;;;;1999.90;999.90;;;;;;;;;;4983932;28;20216;-70
2021/09/21 13:22:24;;;;;;;1999.90;999.90;;;;;;;;;;4977579;28;20242;-70
2021/09/21 13:25:10;;;;;;;1999.90;999.90;;;;;;;;;;4977873;28;20642;-71
2021/09/21 13:27:56;;;;;;;1999.90;999.90;;;;;;;;;;4989065;28;20222;-70
2021/09/21 13:30:44;;;;;;;1999.90;999.90;;;;;;;;;;4991138;28;20232;-70
2021/09/21 13:33:30;;;;;;;1999.90;999.90;;;;;;;;;;4991093;28;20288;-70
2021/09/21 13:36:17;;;;;;;1999.90;999.90;;;;;;;;;;4990031;28;20289;-70
2021/09/21 13:39:02;;;;;;;1999.90;999.90;;;;;;;;;;4990174;28;20579;-70
2021/09/21 13:41:47;;;;;;;1999.90;999.90;;;;;;;;;;4974202;28;20304;-69
2021/09/21 13:44:31;;;;;;;1999.90;999.90;;;;;;;;;;4970813;28;20293;-70
2021/09/21 13:47:16;;;;;;;1999.90;999.90;;;;;;;;;;4980674;28;21059;-70
2021/09/21 13:50:03;;;;;;;1999.90;999.90;;;;;;;;;;4990633;28;20975;-70
2021/09/21 13:52:48;;;;;;;1999.90;999.90;;;;;;;;;;4990707;28;20240;-69
2021/09/21 13:55:33;;;;;;;1999.90;999.90;;;;;;;;;;4973832;28;20211;-70
2021/09/21 13:58:19;;;;;;;1999.90;999.90;;;;;;;;;;4990627;28;20229;-70
2021/09/21 14:01:04;;;;;;;1999.90;999.90;;;;;;;;;;4988559;28;20242;-68
2021/09/21 14:03:49;;;;;;;1999.90;999.90;;;;;;;;;;4984627;28;20212;-70
2021/09/21 14:06:35;;;;;;;1999.90;999.90;;;;;;;;;;4990268;28;20223;-71
2021/09/21 14:09:21;;;;;;;1999.90;999.90;;;;;;;;;;4987797;28;20216;-71
2021/09/21 14:12:06;;;;;;;1999.90;999.90;;;;;;;;;;4971265;28;20403;-71
2021/09/21 14:14:53;;;;;;;1999.90;999.90;;;;;;;;;;4972488;28;20300;-73
2021/09/21 14:17:39;;;;;;;1999.90;999.90;;;;;;;;;;4988127;28;20817;-71
2021/09/21 14:20:24;;;;;;;1999.90;999.90;;;;;;;;;;4988699;28;20221;-71
2021/09/21 14:23:10;;;;;;;1999.90;999.90;;;;;;;;;;4982474;28;20210;-71
2021/09/21 14:25:56;;;;;;;1999.90;999.90;;;;;;;;;;4991480;28;20213;-73
2021/09/21 14:28:42;;;;;;;1999.90;999.90;;;;;;;;;;4984253;28;20207;-73
2021/09/21 14:31:27;;;;;;;1999.90;999.90;;;;;;;;;;4977887;28;20236;-71
2021/09/21 14:34:12;;;;;;;1999.90;999.90;;;;;;;;;;4982206;28;20338;-77
2021/09/21 14:36:57;;;;;;;1999.90;999.90;;;;;;;;;;4981383;28;20214;-76
2021/09/21 14:39:43;;;;;;;1999.90;999.90;;;;;;;;;;4988276;28;20225;-73
2021/09/21 14:42:29;;;;;;;1999.90;999.90;;;;;;;;;;4986295;28;20232;-72
2021/09/21 14:45:15;;;;;;;1999.90;999.90;;;;;;;;;;4992969;28;20355;-75
2021/09/21 14:48:00;;;;;;;1999.90;999.90;;;;;;;;;;4975038;28;20296;-77
2021/09/21 14:50:44;;;;;;;1999.90;999.90;;;;;;;;;;4988913;28;20218;-71
2021/09/21 14:53:29;;;;;;;1999.90;999.90;;;;;;;;;;4986637;28;20349;-71
2021/09/21 14:56:16;;;;;;;1999.90;999.90;;;;;;;;;;4974557;28;20210;-69
2021/09/21 14:59:00;;;;;;;1999.90;999.90;;;;;;;;;;4973145;28;21050;-69
2021/09/21 15:01:45;;;;;;;1999.90;999.90;;;;;;;;;;4989941;28;20604;-70
2021/09/21 15:04:30;;;;;;;1999.90;999.90;;;;;;;;;;4982674;28;20577;-73
2021/09/21 15:07:15;;;;;;;1999.90;999.90;;;;;;;;;;4989241;28;20235;-69
2021/09/21 15:10:00;;;;;;;1999.90;999.90;;;;;;;;;;4976240;28;20375;-72
2021/09/21 15:12:46;;;;;;;1999.90;999.90;;;;;;;;;;4977644;28;20793;-72
2021/09/21 15:15:31;;;;;;;1999.90;999.90;;;;;;;;;;4991535;28;20222;-70
2021/09/21 15:18:16;;;;;;;1999.90;999.90;;;;;;;;;;4987204;28;20718;-71
2021/09/21 15:21:01;;;;;;;1999.90;999.90;;;;;;;;;;4992713;28;20441;-71
2021/09/21 15:23:46;;;;;;;1999.90;999.90;;;;;;;;;;4993499;28;20269;-71
2021/09/21 15:26:31;;;;;;;1999.90;999.90;;;;;;;;;;4973756;28;20213;-71
2021/09/21 15:29:18;;;;;;;1999.90;999.90;;;;;;;;;;4974055;28;20703;-73
2021/09/21 15:32:03;;;;;;;1999.90;999.90;;;;;;;;;;4975383;28;20228;-74
2021/09/21 15:34:49;;;;;;;1999.90;999.90;;;;;;;;;;4988096;28;20298;-71